createdAt,value
2019-04-23T00:00:03.473Z,64.40
2019-04-23T00:02:53.416Z,64.30
2019-04-23T00:05:35.377Z,63.80
2019-04-23T00:08:07.362Z,64.20
2019-04-23T00:10:53.402Z,63.70
2019-04-23T00:13:05.680Z,63.80
2019-04-23T00:15:54.687Z,63.50
2019-04-23T00:18:28.271Z,63.50
2019-04-23T00:20:58.053Z,63.60
2019-04-23T00:23:28.793Z,63.50
2019-04-23T00:26:19.672Z,63.50
2019-04-23T00:28:56.796Z,62.60
2019-04-23T00:31:18.510Z,62.70
2019-04-23T00:33:50.928Z,62.40
2019-04-23T00:36:27.166Z,62.10
2019-04-23T00:38:50.860Z,62.20
2019-04-23T00:41:30.884Z,62.10
2019-04-23T00:44:02.002Z,62.10
2019-04-23T00:46:34.988Z,63.00
2019-04-23T00:49:13.656Z,62.30
2019-04-23T00:51:45.623Z,62.10
2019-04-23T00:54:12.202Z,61.90
2019-04-23T00:56:46.203Z,61.90
2019-04-23T00:59:12.177Z,61.60
2019-04-23T01:01:56.643Z,61.80
2019-04-23T01:04:19.867Z,61.60
2019-04-23T01:07:01.114Z,61.50
2019-04-23T01:09:29.305Z,61.40
2019-04-23T01:12:08.920Z,61.30
2019-04-23T01:14:33.872Z,61.00
2019-04-23T01:17:16.993Z,61.40
2019-04-23T01:19:57.156Z,61.40
2019-04-23T01:22:10.608Z,61.40
2019-04-23T01:24:50.854Z,61.40
2019-04-23T01:27:53.093Z,61.70
2019-04-23T01:30:38.813Z,61.80
2019-04-23T01:32:48.482Z,62.00
2019-04-23T01:35:33.377Z,62.20
2019-04-23T01:37:52.381Z,62.30
2019-04-23T01:40:31.912Z,62.60
2019-04-23T01:42:58.728Z,62.80
2019-04-23T01:45:27.030Z,62.70
2019-04-23T01:48:19.971Z,63.00
2019-04-23T01:50:43.395Z,63.10
2019-04-23T01:53:14.360Z,63.20
2019-04-23T01:56:01.335Z,63.40
2019-04-23T01:58:38.357Z,63.60
2019-04-23T02:00:51.372Z,63.70
2019-04-23T02:03:20.606Z,63.70
2019-04-23T02:05:55.712Z,63.80
2019-04-23T02:08:40.301Z,63.90
2019-04-23T02:13:33.856Z,63.70
2019-04-23T02:15:59.839Z,63.40
2019-04-23T02:18:33.868Z,63.70
2019-04-23T02:21:07.833Z,63.40
2019-04-23T02:23:57.290Z,63.50
2019-04-23T02:26:34.167Z,63.50
2019-04-23T02:31:58.269Z,62.90
2019-04-23T02:39:22.667Z,62.60
2019-04-23T02:54:44.843Z,62.20
2019-04-23T02:57:05.751Z,62.40
2019-04-23T03:02:36.981Z,62.50
2019-04-23T03:04:58.097Z,62.40
2019-04-23T03:12:32.157Z,62.50
2019-04-23T03:15:14.916Z,62.60
2019-04-23T03:18:11.807Z,62.70
2019-04-23T03:20:37.981Z,62.70
2019-04-23T03:26:09.092Z,62.80
2019-04-23T03:33:03.539Z,62.80
2019-04-23T03:36:18.120Z,62.80
2019-04-23T03:38:48.595Z,62.60
2019-04-23T03:41:23.624Z,62.70
2019-04-23T03:43:46.486Z,62.80
2019-04-23T03:51:31.738Z,62.40
2019-04-23T03:54:16.620Z,61.90
2019-04-23T03:59:11.427Z,61.20
2019-04-23T04:01:34.804Z,61.20
2019-04-23T04:06:51.838Z,59.90
2019-04-23T04:11:29.150Z,59.40
2019-04-23T04:21:58.456Z,58.30
2019-04-23T04:24:27.375Z,58.20
2019-04-23T04:29:40.873Z,57.50
2019-04-23T04:32:01.004Z,57.50
2019-04-23T04:39:42.232Z,56.50
2019-04-23T04:42:12.241Z,56.30
2019-04-23T04:45:04.833Z,55.80
2019-04-23T04:47:21.350Z,55.80
2019-04-23T04:50:24.258Z,55.80
2019-04-23T04:54:39.369Z,55.60
2019-04-23T05:00:06.723Z,55.40
2019-04-23T05:02:47.403Z,55.40
2019-04-23T05:05:46.310Z,54.90
2019-04-23T05:07:38.184Z,54.70
2019-04-23T05:10:25.193Z,55.10
2019-04-23T05:12:52.907Z,54.90
2019-04-23T05:18:23.571Z,54.60
2019-04-23T05:25:41.163Z,54.20
2019-04-23T05:28:17.350Z,53.90
2019-04-23T05:33:21.848Z,54.00
2019-04-23T05:38:37.426Z,54.30
2019-04-23T05:41:03.813Z,53.80
2019-04-23T05:43:27.756Z,53.80
2019-04-23T05:45:59.225Z,53.80
2019-04-23T05:48:32.027Z,53.10
2019-04-23T05:53:43.653Z,53.00
2019-04-23T05:56:10.175Z,52.80
2019-04-23T06:01:47.203Z,52.40
2019-04-23T06:04:09.317Z,52.00
2019-04-23T06:06:43.217Z,52.00
2019-04-23T06:09:03.459Z,52.10
2019-04-23T06:11:45.236Z,52.70
2019-04-23T06:19:12.888Z,51.20
2019-04-23T06:21:52.383Z,51.20
2019-04-23T06:24:21.164Z,51.60
2019-04-23T06:26:49.330Z,51.30
2019-04-23T06:29:25.586Z,50.80
2019-04-23T06:31:50.705Z,50.00
2019-04-23T06:34:23.391Z,49.40
2019-04-23T06:36:51.256Z,50.20
2019-04-23T06:39:34.767Z,50.00
2019-04-23T06:42:04.539Z,50.00
2019-04-23T06:44:37.636Z,49.10
2019-04-23T06:47:06.799Z,48.90
2019-04-23T06:49:47.322Z,48.80
2019-04-23T06:54:49.325Z,48.70
2019-04-23T06:57:16.253Z,49.00
2019-04-23T06:59:52.745Z,48.40
2019-04-23T07:05:03.424Z,48.10
2019-04-23T07:10:04.913Z,47.40
2019-04-23T07:13:08.819Z,47.30
2019-04-23T07:15:13.020Z,47.40
2019-04-23T07:17:30.882Z,47.70
2019-04-23T07:20:09.798Z,47.30
2019-04-23T07:22:37.513Z,47.40
2019-04-23T07:25:14.220Z,46.70
2019-04-23T07:27:40.936Z,46.40
2019-04-23T07:30:28.619Z,46.00
2019-04-23T07:32:52.959Z,45.40
2019-04-23T07:35:15.888Z,45.10
2019-04-23T07:38:02.560Z,45.00
2019-04-23T07:40:31.225Z,44.90
2019-04-23T07:43:34.359Z,44.30
2019-04-23T07:46:16.852Z,44.00
2019-04-23T07:48:40.732Z,44.10
2019-04-23T07:51:22.849Z,44.40
2019-04-23T07:54:01.327Z,44.50
2019-04-23T07:56:45.628Z,44.20
2019-04-23T07:58:54.280Z,43.80
2019-04-23T08:01:29.831Z,43.50
2019-04-23T08:04:03.086Z,44.00
2019-04-23T08:06:30.025Z,43.80
2019-04-23T08:09:03.996Z,43.50
2019-04-23T08:11:39.796Z,43.40
2019-04-23T08:14:26.355Z,43.30
2019-04-23T08:16:48.147Z,43.40
2019-04-23T08:19:15.487Z,43.70
2019-04-23T08:21:43.958Z,43.30
2019-04-23T08:24:49.089Z,42.90
2019-04-23T08:27:34.732Z,42.70
2019-04-23T08:30:06.170Z,42.60
2019-04-23T08:32:36.972Z,43.30
2019-04-23T08:40:26.397Z,42.90
2019-04-23T08:42:58.549Z,42.10
2019-04-23T08:45:51.293Z,41.80
2019-04-23T08:48:34.471Z,41.40
2019-04-23T08:50:50.262Z,41.80
2019-04-23T08:55:50.154Z,41.70
2019-04-23T08:58:30.133Z,41.20
2019-04-23T09:01:05.547Z,40.60
2019-04-23T09:03:34.851Z,40.00
2019-04-23T09:06:12.360Z,39.80
2019-04-23T09:08:42.093Z,39.00
2019-04-23T09:11:30.786Z,39.50
2019-04-23T09:18:55.512Z,40.20
2019-04-23T09:26:26.180Z,38.90
2019-04-23T09:28:56.712Z,38.70
2019-04-23T09:37:41.903Z,39.20
2019-04-23T09:40:36.937Z,38.80
2019-04-23T09:43:19.523Z,39.00
2019-04-23T09:48:48.512Z,39.30
2019-04-23T09:51:10.204Z,38.80
2019-04-23T09:54:00.699Z,38.00
2019-04-23T09:56:04.990Z,38.10
2019-04-23T09:58:41.558Z,37.70
2019-04-23T10:03:52.064Z,39.20
2019-04-23T10:06:14.614Z,36.90
2019-04-23T10:08:47.448Z,36.00
2019-04-23T10:11:13.848Z,36.20
2019-04-23T10:13:45.155Z,35.90
2019-04-23T10:16:19.217Z,35.40
2019-04-23T10:18:49.146Z,35.50
2019-04-23T10:21:21.350Z,35.30
2019-04-23T10:23:53.062Z,35.30
2019-04-23T10:26:25.987Z,35.40
2019-04-23T10:29:09.829Z,35.50
2019-04-23T10:31:41.946Z,35.50
2019-04-23T10:34:12.690Z,35.40
2019-04-23T10:36:44.168Z,35.50
2019-04-23T10:39:23.314Z,35.10
2019-04-23T10:41:48.847Z,34.90
2019-04-23T10:44:25.589Z,34.80
2019-04-23T10:47:45.339Z,34.90
2019-04-23T10:55:58.761Z,35.40
2019-04-23T10:58:30.367Z,35.50
2019-04-23T11:04:02.819Z,36.20
2019-04-23T11:06:06.728Z,35.50
2019-04-23T11:08:38.665Z,34.80
2019-04-23T11:13:45.247Z,35.80
2019-04-23T11:18:57.120Z,35.50
2019-04-23T11:21:28.260Z,35.30
2019-04-23T11:24:02.536Z,34.50
2019-04-23T11:26:36.957Z,33.80
2019-04-23T11:29:02.103Z,33.90
2019-04-23T11:31:39.148Z,33.70
2019-04-23T11:34:08.184Z,33.70
2019-04-23T11:39:28.762Z,35.20
2019-04-23T11:42:01.539Z,36.20
2019-04-23T11:44:20.157Z,36.10
2019-04-23T11:46:53.369Z,35.40
2019-04-23T11:51:54.407Z,35.00
2019-04-23T11:54:24.203Z,35.00
2019-04-23T12:02:26.076Z,35.80
2019-04-23T12:05:33.477Z,36.20
2019-04-23T12:08:13.448Z,36.30
2019-04-23T12:10:54.349Z,35.80
2019-04-23T12:13:21.415Z,35.70
2019-04-23T12:15:49.938Z,35.60
2019-04-23T12:18:29.972Z,35.90
2019-04-23T12:21:13.367Z,36.40
2019-04-23T12:23:48.586Z,36.50
2019-04-23T12:26:19.478Z,36.20
2019-04-23T12:28:50.122Z,36.20
2019-04-23T12:31:16.152Z,36.90
2019-04-23T12:33:57.378Z,37.30
2019-04-23T12:39:11.339Z,36.90
2019-04-23T12:41:45.245Z,36.60
2019-04-23T12:44:16.163Z,36.60
2019-04-23T12:46:57.623Z,37.00
2019-04-23T12:49:34.763Z,37.00
2019-04-23T12:51:55.493Z,36.60
2019-04-23T12:57:07.302Z,37.00
2019-04-23T12:59:28.676Z,36.90
2019-04-23T13:02:03.631Z,37.00
2019-04-23T13:07:11.471Z,37.90
2019-04-23T13:09:45.777Z,38.60
2019-04-23T13:12:32.839Z,38.80
2019-04-23T13:14:57.314Z,39.30
2019-04-23T13:17:31.293Z,39.30
2019-04-23T13:20:09.541Z,39.60
2019-04-23T13:22:37.071Z,39.70
2019-04-23T13:25:18.135Z,40.10
2019-04-23T13:27:54.047Z,40.40
2019-04-23T13:30:54.280Z,40.30
2019-04-23T13:33:00.516Z,39.10
2019-04-23T13:35:40.457Z,39.00
2019-04-23T13:38:02.080Z,38.90
2019-04-23T13:40:37.521Z,39.70
2019-04-23T13:43:14.603Z,39.20
2019-04-23T13:51:03.418Z,39.70
2019-04-23T13:55:45.076Z,38.80
2019-04-23T14:01:13.025Z,38.60
2019-04-23T14:03:35.715Z,38.90
2019-04-23T14:06:19.857Z,39.50
2019-04-23T14:08:50.459Z,39.40
2019-04-23T14:11:20.988Z,39.10
2019-04-23T14:16:34.078Z,38.40
2019-04-23T14:21:25.353Z,38.70
2019-04-23T14:24:11.819Z,38.90
2019-04-23T14:26:32.590Z,38.70
2019-04-23T14:28:51.203Z,38.80
2019-04-23T14:31:22.013Z,38.90
2019-04-23T14:39:06.158Z,38.70
2019-04-23T14:41:44.496Z,38.70
2019-04-23T14:46:53.017Z,38.60
2019-04-23T14:49:30.498Z,38.60
2019-04-23T14:51:58.578Z,38.70
2019-04-23T14:54:50.560Z,38.90
2019-04-23T14:57:13.184Z,38.50
2019-04-23T14:59:31.593Z,38.40
2019-04-23T15:02:13.829Z,38.10
2019-04-23T15:04:39.408Z,38.40
2019-04-23T15:07:16.850Z,38.40
2019-04-23T15:09:57.759Z,38.30
2019-04-23T15:12:23.542Z,38.20
2019-04-23T15:15:05.842Z,38.40
2019-04-23T15:17:28.520Z,38.70
2019-04-23T15:20:03.239Z,38.80
2019-04-23T15:22:42.182Z,39.10
2019-04-23T15:27:45.691Z,39.20
2019-04-23T15:30:03.958Z,39.00
2019-04-23T15:32:59.275Z,39.00
2019-04-23T15:40:27.012Z,39.40
2019-04-23T15:42:57.920Z,39.30
2019-04-23T15:45:21.037Z,39.30
2019-04-23T15:48:10.264Z,39.50
2019-04-23T15:53:01.422Z,39.60
2019-04-23T15:55:44.456Z,39.20
2019-04-23T15:58:14.548Z,39.20
2019-04-23T16:00:55.844Z,39.20
2019-04-23T16:02:50.348Z,39.30
2019-04-23T16:05:23.132Z,39.30
2019-04-23T16:08:16.909Z,39.10
2019-04-23T16:10:54.596Z,39.10
2019-04-23T16:13:31.239Z,39.20
2019-04-23T16:16:04.015Z,39.20
2019-04-23T16:18:42.199Z,39.30
2019-04-23T16:23:42.399Z,39.20
2019-04-23T16:26:14.660Z,39.30
2019-04-23T16:29:11.389Z,39.30
2019-04-23T16:34:04.464Z,39.70
2019-04-23T16:39:04.307Z,39.60
2019-04-23T16:41:34.523Z,39.50
2019-04-23T16:44:16.865Z,39.50
2019-04-23T16:46:41.970Z,39.50
2019-04-23T16:49:19.763Z,39.50
2019-04-23T16:51:39.796Z,39.70
2019-04-23T16:54:19.357Z,39.80
2019-04-23T16:59:18.443Z,39.90
2019-04-23T17:02:02.077Z,40.20
2019-04-23T17:04:24.400Z,40.10
2019-04-23T17:06:57.730Z,40.00
2019-04-23T17:09:38.862Z,40.00
2019-04-23T17:12:10.902Z,40.20
2019-04-23T17:14:30.875Z,40.40
2019-04-23T17:16:58.193Z,40.70
2019-04-23T17:22:09.616Z,41.80
2019-04-23T17:24:43.293Z,41.20
2019-04-23T17:27:24.488Z,41.20
2019-04-23T17:30:01.090Z,41.20
2019-04-23T17:32:34.602Z,41.20
2019-04-23T17:35:20.143Z,41.20
2019-04-23T17:37:59.899Z,41.30
2019-04-23T17:40:53.195Z,41.40
2019-04-23T17:43:26.792Z,41.40
2019-04-23T17:45:52.201Z,41.40
2019-04-23T17:48:35.944Z,41.50
2019-04-23T17:51:16.545Z,41.60
2019-04-23T17:53:48.672Z,41.50
2019-04-23T17:58:55.030Z,41.60
2019-04-23T18:01:24.330Z,41.60
2019-04-23T18:04:04.060Z,41.70
2019-04-23T18:06:41.247Z,41.80
2019-04-23T18:09:09.208Z,41.90
2019-04-23T18:11:31.190Z,41.90
2019-04-23T18:14:04.842Z,42.10
2019-04-23T18:16:41.086Z,42.10
2019-04-23T18:24:50.203Z,42.10
2019-04-23T18:27:21.432Z,42.10
2019-04-23T18:30:05.437Z,42.20
2019-04-23T18:32:42.875Z,42.50
2019-04-23T18:37:44.303Z,42.60
2019-04-23T18:40:10.640Z,42.60
2019-04-23T18:42:53.473Z,42.70
2019-04-23T18:45:27.173Z,42.70
2019-04-23T18:47:52.035Z,42.70
2019-04-23T18:50:48.167Z,42.80
2019-04-23T18:53:15.903Z,42.80
2019-04-23T18:55:57.637Z,42.80
2019-04-23T18:58:08.384Z,42.80
2019-04-23T19:00:53.518Z,42.90
2019-04-23T19:06:30.404Z,42.90
2019-04-23T19:09:47.823Z,43.00
2019-04-23T19:15:21.550Z,43.20
2019-04-23T19:20:29.745Z,43.20
2019-04-23T19:22:58.822Z,43.30
2019-04-23T19:25:23.058Z,43.20
2019-04-23T19:27:59.289Z,43.20
2019-04-23T19:30:43.119Z,43.40
2019-04-23T19:33:22.437Z,43.30
2019-04-23T19:38:23.893Z,43.60
2019-04-23T19:43:26.491Z,43.70
2019-04-23T19:46:16.111Z,44.40
2019-04-23T19:48:33.540Z,43.90
2019-04-23T19:53:43.459Z,44.20
2019-04-23T20:03:43.785Z,44.50
2019-04-23T20:11:21.798Z,44.80
2019-04-23T20:13:50.679Z,44.90
2019-04-23T20:16:30.730Z,45.00
2019-04-23T20:21:25.764Z,45.30
2019-04-23T20:24:08.438Z,45.50
2019-04-23T20:26:47.547Z,45.90
2019-04-23T20:37:03.211Z,46.60
2019-04-23T20:52:30.652Z,47.00
2019-04-23T21:03:18.170Z,47.10
2019-04-23T21:05:20.981Z,47.10
2019-04-23T21:07:58.642Z,47.10
2019-04-23T21:10:35.804Z,47.40
2019-04-23T21:15:35.327Z,47.90
2019-04-23T21:23:10.981Z,48.30
2019-04-23T21:25:43.991Z,48.40
2019-04-23T21:28:40.121Z,48.50
2019-04-23T21:31:06.563Z,48.70
2019-04-23T21:33:37.712Z,48.80
2019-04-23T21:39:23.075Z,49.00
2019-04-23T21:42:07.411Z,49.40
2019-04-23T21:44:26.782Z,49.40
2019-04-23T21:47:04.715Z,49.70
2019-04-23T21:49:48.189Z,49.80
2019-04-23T21:54:42.959Z,50.20
2019-04-23T21:57:14.553Z,50.10
2019-04-23T21:59:52.821Z,50.50
2019-04-23T22:02:22.038Z,50.30
2019-04-23T22:04:52.134Z,50.50
2019-04-23T22:07:29.347Z,50.70
2019-04-23T22:09:57.639Z,50.70
2019-04-23T22:12:54.553Z,50.90
2019-04-23T22:15:03.044Z,51.00
2019-04-23T22:17:32.543Z,51.40
2019-04-23T22:20:13.162Z,51.20
2019-04-23T22:22:51.261Z,51.40
2019-04-23T22:25:04.496Z,51.50
2019-04-23T22:27:41.144Z,51.50
2019-04-23T22:30:12.908Z,51.60
2019-04-23T22:32:59.374Z,51.50
2019-04-23T22:35:23.680Z,51.70
2019-04-23T22:38:02.472Z,51.90
2019-04-23T22:40:14.919Z,52.00
2019-04-23T22:43:17.795Z,52.10
2019-04-23T22:45:26.842Z,52.30
2019-04-23T22:55:44.792Z,52.70
2019-04-23T22:58:05.123Z,52.90
2019-04-23T23:01:10.812Z,52.90
2019-04-23T23:06:11.913Z,53.20
2019-04-23T23:08:41.697Z,53.20
2019-04-23T23:11:08.744Z,53.30
2019-04-23T23:13:52.221Z,53.40
2019-04-23T23:16:07.288Z,53.30
2019-04-23T23:18:42.620Z,53.50
2019-04-23T23:21:12.098Z,53.70
2019-04-23T23:23:46.546Z,53.70
2019-04-23T23:28:59.430Z,54.10
2019-04-23T23:31:22.418Z,54.00
2019-04-23T23:36:33.486Z,54.30
2019-04-23T23:39:05.567Z,54.40
2019-04-23T23:44:29.805Z,54.70
2019-04-23T23:46:48.776Z,54.70
2019-04-23T23:49:14.115Z,54.90
2019-04-23T23:51:50.663Z,54.90
2019-04-23T23:54:30.751Z,55.00
2019-04-23T23:56:58.214Z,55.10
2019-04-23T23:59:26.818Z,55.40
